Aérodrome :
LOGIN :

S'inscrire | Disclaimer

   EN    FR    IT 

 










Légende :    VFR   VFR Marginal   IFR   IFR Intensif   IFR Très Intensif
Visi : 
Plafond : 
>= 8 km
>= 3000ft
5 à 8 km
1000 à 3000 ft
1500m à 5 km
500 à 1000 ft
800 à 1500m
200 à 500 ft
< 800m
< 200 ft
Symboles :   Orages  Brouillard  Fortes neiges  Fortes précipitations  Vent > 20 kt
SIGMETs :   Divers  Orages  Givrage  Turbulence  Onde Orograph.  Cendres Volcan.







- Altitude de l'aérodrome : 2026 ft
- Code IATA : TOJ


LETO - Madrid Torrejon

DERNIER METAR :
  • 220700Z 00000KT 9999 BKN038 09/07 Q1004 NOSIG

METARs EXPIRÉS :
  • 220600Z 00000KT 9999 SCT035 07/06 Q1004 NOSIG
  • 220500Z 01002KT 9999 FEW035 06/05 Q1005 NOSIG

TAF TAF LETO
Valide du 22 à 06h jusqu'au 23 à 06h UTC


220500Z 2206/2306 VRB05KT 9999 FEW030 SCT050 TX18/2216Z TN06/2206Z
PROB40
TEMPO 2214/2219 21010KT FEW040TCU
TEMPO 2304/2306 21010KT RA
Pas de NOTAMs connus pour ce terrain.
1 SIGMET publié pour la FIR Madrid (LECM) :
 
Turbulence forte
LECM SIGMET 1 VALID 220400/220800 LEVA
LECM MADRID FIR/UIR SEV TURB FCST W OF LINE N3944 W00703 - N3551 W00513 FL240/280 STNR WKN=



MET'MAP, la Météo Aéronautique d'un coup d'oeil ! - Copyright ORBIFLY Décembre 2007 - Disclaimer

ORBIFLY MET'MAP TEAM :

Programmation & Développement : Alexandra Zaïnal
Conception & Développement : Baudouin d'Aumeries
Co-Programmation & Développement : Marc-Olivier Méhu
Soutien technique & logistique : Manuel Goepfert

Contact : metmap@orbifly.com




SOURCES & CREDITS :

   NOAA